createdAt,value
2023-03-17T00:01:25.060Z,6.00
2023-03-17T00:03:53.117Z,7.53
2023-03-17T00:06:28.476Z,5.95
2023-03-17T00:08:57.383Z,5.57
2023-03-17T00:11:27.416Z,6.00
2023-03-17T00:13:56.642Z,6.28
2023-03-17T00:16:28.099Z,6.63
2023-03-17T00:18:56.725Z,6.25
2023-03-17T00:21:29.144Z,7.53
2023-03-17T00:23:57.767Z,5.35
2023-03-17T00:26:26.462Z,6.97
2023-03-17T00:28:56.268Z,7.07
2023-03-17T00:31:27.253Z,6.68
2023-03-17T00:33:56.019Z,6.38
2023-03-17T00:36:28.091Z,7.07
2023-03-17T00:38:56.372Z,7.10
2023-03-17T00:41:27.131Z,5.60
2023-03-17T00:43:57.214Z,8.55
2023-03-17T00:46:28.850Z,7.72
2023-03-17T00:48:58.399Z,5.38
2023-03-17T00:51:26.283Z,5.70
2023-03-17T00:53:56.563Z,7.40
2023-03-17T00:56:24.680Z,6.97
2023-03-17T00:58:52.809Z,6.28
2023-03-17T01:01:22.105Z,5.57
2023-03-17T01:03:49.958Z,5.68
2023-03-17T01:06:18.134Z,8.03
2023-03-17T01:08:46.538Z,7.35
2023-03-17T01:11:18.678Z,7.45
2023-03-17T01:13:48.677Z,5.88
2023-03-17T01:16:17.047Z,6.28
2023-03-17T01:18:46.550Z,6.20
2023-03-17T01:21:15.355Z,6.43
2023-03-17T01:23:43.615Z,7.20
2023-03-17T01:26:11.752Z,8.43
2023-03-17T01:28:39.776Z,7.90
2023-03-17T01:31:07.700Z,7.97
2023-03-17T01:33:35.607Z,7.65
2023-03-17T01:36:05.316Z,7.22
2023-03-17T01:38:33.286Z,7.40
2023-03-17T01:41:01.521Z,7.55
2023-03-17T01:43:31.051Z,6.87
2023-03-17T01:46:21.770Z,7.97
2023-03-17T01:48:57.661Z,7.00
2023-03-17T01:51:32.385Z,6.57
2023-03-17T01:54:02.520Z,6.43
2023-03-17T01:56:31.491Z,8.23
2023-03-17T01:59:03.864Z,11.38
2023-03-17T02:01:38.631Z,9.82
2023-03-17T02:04:07.352Z,11.52
2023-03-17T02:06:42.164Z,10.68
2023-03-17T02:09:15.768Z,8.17
2023-03-17T02:11:45.418Z,7.28
2023-03-17T02:14:13.540Z,6.70
2023-03-17T02:16:42.001Z,5.63
2023-03-17T02:19:09.947Z,6.43
2023-03-17T02:21:42.728Z,7.57
2023-03-17T02:24:20.383Z,6.78
2023-03-17T02:26:50.626Z,6.32
2023-03-17T02:29:20.174Z,10.38
2023-03-17T02:31:48.090Z,9.73
2023-03-17T02:34:16.928Z,11.37
2023-03-17T02:36:46.600Z,9.07
2023-03-17T02:39:16.420Z,10.80
2023-03-17T02:41:44.314Z,11.48
2023-03-17T02:44:12.722Z,9.10
2023-03-17T02:46:40.604Z,7.50
2023-03-17T02:49:09.040Z,7.90
2023-03-17T02:51:37.116Z,6.65
2023-03-17T02:54:06.373Z,6.90
2023-03-17T02:56:34.418Z,6.65
2023-03-17T02:59:02.326Z,7.87
2023-03-17T03:01:30.905Z,9.18
2023-03-17T03:03:59.157Z,10.98
2023-03-17T03:06:27.324Z,11.18
2023-03-17T03:08:55.279Z,8.52
2023-03-17T03:11:24.481Z,10.13
2023-03-17T03:13:52.464Z,11.40
2023-03-17T03:16:20.938Z,14.45
2023-03-17T03:18:48.838Z,6.95
2023-03-17T03:21:16.659Z,8.18
2023-03-17T03:23:44.526Z,12.93
2023-03-17T03:26:12.916Z,9.80
2023-03-17T03:28:42.178Z,12.93
2023-03-17T03:31:10.330Z,10.95
2023-03-17T03:33:38.459Z,12.18
2023-03-17T03:36:07.737Z,9.73
2023-03-17T03:38:35.739Z,9.95
2023-03-17T03:41:03.790Z,8.52
2023-03-17T03:43:31.576Z,10.73
2023-03-17T03:46:00.952Z,8.52
2023-03-17T03:48:29.008Z,11.00
2023-03-17T03:50:58.017Z,12.10
2023-03-17T03:53:26.322Z,10.85
2023-03-17T03:55:54.498Z,11.18
2023-03-17T03:58:22.742Z,12.30
2023-03-17T04:00:51.167Z,13.83
2023-03-17T04:03:20.644Z,10.70
2023-03-17T04:05:48.424Z,9.38
2023-03-17T04:08:16.456Z,11.68
2023-03-17T04:10:44.570Z,8.95
2023-03-17T04:13:12.881Z,9.97
2023-03-17T04:15:40.864Z,10.07
2023-03-17T04:18:09.727Z,9.88
2023-03-17T04:20:39.485Z,7.25
2023-03-17T04:23:07.903Z,12.48
2023-03-17T04:25:36.654Z,14.07
2023-03-17T04:28:04.942Z,11.52
2023-03-17T04:30:33.323Z,9.88
2023-03-17T04:33:01.298Z,10.05
2023-03-17T04:35:29.239Z,10.10
2023-03-17T04:37:58.481Z,10.90
2023-03-17T04:40:27.625Z,11.43
2023-03-17T04:42:55.465Z,9.90
2023-03-17T04:45:23.293Z,9.82
2023-03-17T04:47:51.160Z,10.02
2023-03-17T04:50:19.093Z,10.63
2023-03-17T04:52:46.935Z,9.52
2023-03-17T04:55:16.527Z,15.52
2023-03-17T04:57:44.750Z,14.77
2023-03-17T05:00:15.389Z,10.07
2023-03-17T05:02:43.317Z,9.77
2023-03-17T05:05:12.243Z,10.18
2023-03-17T05:07:40.223Z,12.73
2023-03-17T05:10:09.386Z,12.40
2023-03-17T05:12:38.672Z,16.13
2023-03-17T05:15:07.787Z,13.50
2023-03-17T05:17:35.595Z,12.38
2023-03-17T05:20:04.310Z,11.10
2023-03-17T05:22:32.482Z,12.77
2023-03-17T05:25:00.464Z,10.77
2023-03-17T05:27:28.306Z,13.40
2023-03-17T05:29:57.724Z,13.18
2023-03-17T05:32:25.801Z,11.15
2023-03-17T05:34:53.934Z,10.48
2023-03-17T05:37:22.635Z,9.02
2023-03-17T05:39:50.981Z,9.20
2023-03-17T05:42:18.889Z,9.10
2023-03-17T05:44:46.787Z,10.10
2023-03-17T05:47:16.731Z,8.45
2023-03-17T05:49:44.602Z,9.35
2023-03-17T05:52:12.467Z,7.53
2023-03-17T05:54:40.590Z,8.32
2023-03-17T05:57:08.779Z,8.48
2023-03-17T05:59:36.994Z,6.68
2023-03-17T06:02:04.989Z,8.68
2023-03-17T06:04:34.221Z,8.00
2023-03-17T06:07:02.084Z,8.27
2023-03-17T06:09:30.052Z,8.95
2023-03-17T06:11:58.043Z,7.78
2023-03-17T06:14:27.158Z,7.70
2023-03-17T06:16:55.522Z,7.07
2023-03-17T06:19:23.564Z,5.95
2023-03-17T06:21:52.920Z,6.50
2023-03-17T06:24:21.069Z,7.68
2023-03-17T06:26:49.115Z,6.85
2023-03-17T06:29:17.053Z,7.63
2023-03-17T06:31:50.411Z,6.45
2023-03-17T06:34:18.435Z,8.10
2023-03-17T06:36:46.561Z,9.35
2023-03-17T06:39:16.672Z,6.75
2023-03-17T06:41:44.747Z,6.60
2023-03-17T06:44:13.091Z,8.57
2023-03-17T06:46:41.058Z,7.30
2023-03-17T06:49:09.358Z,6.13
2023-03-17T06:51:37.350Z,7.18
2023-03-17T06:54:06.530Z,7.13
2023-03-17T06:56:35.843Z,7.55
2023-03-17T06:59:04.994Z,7.63
2023-03-17T07:01:32.871Z,8.48
2023-03-17T07:04:01.040Z,8.32
2023-03-17T07:06:29.586Z,6.83
2023-03-17T07:08:57.599Z,7.30
2023-03-17T07:11:26.248Z,7.60
2023-03-17T07:13:56.311Z,8.38
2023-03-17T07:16:24.275Z,7.55
2023-03-17T07:18:52.460Z,6.17
2023-03-17T07:21:20.475Z,7.47
2023-03-17T07:23:48.321Z,7.55
2023-03-17T07:26:16.251Z,6.82
2023-03-17T07:28:44.639Z,7.65
2023-03-17T07:31:14.927Z,9.93
2023-03-17T07:33:43.480Z,6.78
2023-03-17T07:36:11.686Z,8.95
2023-03-17T07:38:39.862Z,6.85
2023-03-17T07:41:10.091Z,9.85
2023-03-17T07:43:39.073Z,7.57
2023-03-17T07:46:07.401Z,8.48
2023-03-17T07:48:40.758Z,9.43
2023-03-17T07:51:14.023Z,9.27
2023-03-17T07:53:42.300Z,8.82
2023-03-17T07:56:10.289Z,9.27
2023-03-17T07:58:38.182Z,8.80
2023-03-17T08:01:06.906Z,8.05
2023-03-17T08:03:38.160Z,8.00
2023-03-17T08:06:08.702Z,7.57
2023-03-17T08:08:36.960Z,7.23
2023-03-17T08:11:06.317Z,8.40
2023-03-17T08:13:35.002Z,7.55
2023-03-17T08:16:02.880Z,8.65
2023-03-17T08:18:31.011Z,8.02
2023-03-17T08:21:00.217Z,8.03
2023-03-17T08:23:28.006Z,9.07
2023-03-17T08:25:58.232Z,10.75
2023-03-17T08:28:27.116Z,7.68
2023-03-17T08:30:55.849Z,7.15
2023-03-17T08:33:23.765Z,7.43
2023-03-17T08:35:51.702Z,10.82
2023-03-17T08:38:20.941Z,7.28
2023-03-17T08:40:50.518Z,7.38
2023-03-17T08:43:18.723Z,7.00
2023-03-17T08:45:46.632Z,9.40
2023-03-17T08:48:15.313Z,7.40
2023-03-17T08:50:43.477Z,8.10
2023-03-17T08:53:11.898Z,7.78
2023-03-17T08:55:41.233Z,7.28
2023-03-17T08:58:09.497Z,8.23
2023-03-17T09:00:37.459Z,8.05
2023-03-17T09:03:05.747Z,7.95
2023-03-17T09:05:35.662Z,9.05
2023-03-17T09:08:06.048Z,7.82
2023-03-17T09:10:34.147Z,6.30
2023-03-17T09:13:04.567Z,6.93
2023-03-17T09:15:33.775Z,7.95
2023-03-17T09:18:03.264Z,8.30
2023-03-17T09:20:31.503Z,7.30
2023-03-17T09:23:00.354Z,8.37
2023-03-17T09:25:30.224Z,7.47
2023-03-17T09:27:58.726Z,7.07
2023-03-17T09:30:27.910Z,7.93
2023-03-17T09:32:55.943Z,6.07
2023-03-17T09:35:23.801Z,8.67
2023-03-17T09:37:51.637Z,7.90
2023-03-17T09:40:22.435Z,6.03
2023-03-17T09:43:03.065Z,6.30
2023-03-17T09:45:37.661Z,6.38
2023-03-17T09:48:33.601Z,8.50
2023-03-17T09:51:04.834Z,6.60
2023-03-17T09:53:36.151Z,7.78
2023-03-17T09:56:09.687Z,6.45
2023-03-17T09:58:39.408Z,6.38
2023-03-17T10:01:12.764Z,7.73
2023-03-17T10:03:41.162Z,7.85
2023-03-17T10:06:18.775Z,7.43
2023-03-17T10:08:52.499Z,6.65
2023-03-17T10:11:29.457Z,6.53
2023-03-17T10:14:03.325Z,7.73
2023-03-17T10:16:40.356Z,6.75
2023-03-17T10:19:19.678Z,7.75
2023-03-17T10:21:52.579Z,6.38
2023-03-17T10:24:21.984Z,6.32
2023-03-17T10:26:51.590Z,6.53
2023-03-17T10:29:22.791Z,6.93
2023-03-17T10:31:55.178Z,6.78
2023-03-17T10:34:27.671Z,6.30
2023-03-17T10:37:00.683Z,7.55
2023-03-17T10:39:32.532Z,6.60
2023-03-17T10:42:08.647Z,5.78
2023-03-17T10:44:44.824Z,6.82
2023-03-17T10:47:31.569Z,6.18
2023-03-17T10:50:02.751Z,6.65
2023-03-17T10:52:33.292Z,5.43
2023-03-17T10:55:03.711Z,5.88
2023-03-17T10:57:31.596Z,6.20
2023-03-17T11:00:05.081Z,5.57
2023-03-17T11:02:38.673Z,7.32
2023-03-17T11:05:19.439Z,6.53
2023-03-17T11:07:47.762Z,5.47
2023-03-17T11:10:20.322Z,5.63
2023-03-17T11:12:51.248Z,6.25
2023-03-17T11:15:20.324Z,6.85
2023-03-17T11:17:55.680Z,7.77
2023-03-17T11:20:45.700Z,6.07
2023-03-17T11:23:23.992Z,4.70
2023-03-17T11:26:03.062Z,5.93
2023-03-17T11:28:36.911Z,5.45
2023-03-17T11:31:13.069Z,5.80
2023-03-17T11:33:53.172Z,5.93
2023-03-17T11:36:37.221Z,5.50
2023-03-17T11:39:13.623Z,5.07
2023-03-17T11:41:49.996Z,6.20
2023-03-17T11:44:41.673Z,5.90
2023-03-17T11:47:21.014Z,6.20
2023-03-17T11:50:15.576Z,6.37
2023-03-17T11:52:56.288Z,5.40
2023-03-17T11:55:27.026Z,6.38
2023-03-17T11:57:58.452Z,6.68
2023-03-17T12:00:33.678Z,6.17
2023-03-17T12:03:14.605Z,5.25
2023-03-17T12:05:45.880Z,6.40
2023-03-17T12:08:21.877Z,7.00
2023-03-17T12:10:54.174Z,5.85
2023-03-17T12:13:26.557Z,5.20
2023-03-17T12:15:58.205Z,5.13
2023-03-17T12:18:32.633Z,5.30
2023-03-17T12:21:08.588Z,6.28
2023-03-17T12:23:42.159Z,5.03
2023-03-17T12:26:13.863Z,4.97
2023-03-17T12:28:47.571Z,5.78
2023-03-17T12:31:20.999Z,5.05
2023-03-17T12:33:54.933Z,5.28
2023-03-17T12:36:25.885Z,5.38
2023-03-17T12:38:57.907Z,5.40
2023-03-17T12:41:40.865Z,5.88
2023-03-17T12:44:21.181Z,5.93
2023-03-17T12:47:41.500Z,5.57
2023-03-17T12:50:34.338Z,5.55
2023-03-17T12:53:24.476Z,6.13
2023-03-17T12:55:55.669Z,6.70
2023-03-17T12:58:30.894Z,5.05
2023-03-17T13:01:08.897Z,5.22
2023-03-17T13:03:46.780Z,5.13
2023-03-17T13:06:20.829Z,5.57
2023-03-17T13:08:52.121Z,5.82
2023-03-17T13:11:29.430Z,5.65
2023-03-17T13:14:12.257Z,5.22
2023-03-17T13:16:41.657Z,5.93
2023-03-17T13:19:20.023Z,6.10
2023-03-17T13:21:57.368Z,4.65
2023-03-17T13:24:47.238Z,6.72
2023-03-17T13:27:36.126Z,5.80
2023-03-17T13:30:37.699Z,6.07
2023-03-17T13:33:23.228Z,5.60
2023-03-17T13:36:10.761Z,8.80
2023-03-17T13:39:18.419Z,7.85
2023-03-17T13:41:59.278Z,5.03
2023-03-17T13:44:38.498Z,6.28
2023-03-17T13:47:28.927Z,5.73
2023-03-17T13:50:03.430Z,5.53
2023-03-17T13:52:34.415Z,5.80
2023-03-17T13:55:12.158Z,5.40
2023-03-17T13:57:40.749Z,5.88
2023-03-17T14:00:23.293Z,5.80
2023-03-17T14:03:00.014Z,5.20
2023-03-17T14:05:32.925Z,5.57
2023-03-17T14:08:03.807Z,5.25
2023-03-17T14:10:34.051Z,5.20
2023-03-17T14:13:08.966Z,4.80
2023-03-17T14:15:47.959Z,5.65
2023-03-17T14:18:19.183Z,6.20
2023-03-17T14:20:55.620Z,5.85
2023-03-17T14:23:24.010Z,5.50
2023-03-17T14:25:52.611Z,5.73
2023-03-17T14:28:26.381Z,5.57
2023-03-17T14:30:56.750Z,8.20
2023-03-17T14:33:27.217Z,7.22
2023-03-17T14:35:59.537Z,6.93
2023-03-17T14:38:30.779Z,8.53
2023-03-17T14:41:04.352Z,8.38
2023-03-17T14:43:32.681Z,7.47
2023-03-17T14:46:02.557Z,8.35
2023-03-17T14:48:34.798Z,7.07
2023-03-17T14:51:07.625Z,8.17
2023-03-17T14:53:37.268Z,5.18
2023-03-17T14:56:05.732Z,5.57
2023-03-17T14:58:38.806Z,5.78
2023-03-17T15:01:08.861Z,5.07
2023-03-17T15:03:40.288Z,5.87
2023-03-17T15:06:23.829Z,7.20
2023-03-17T15:08:52.630Z,5.35
2023-03-17T15:11:29.538Z,6.15
2023-03-17T15:14:07.213Z,5.03
2023-03-17T15:16:37.118Z,6.07
2023-03-17T15:19:08.851Z,6.00
2023-03-17T15:21:41.476Z,5.95
2023-03-17T15:24:32.986Z,4.60
2023-03-17T15:27:04.212Z,5.13
2023-03-17T15:29:32.195Z,5.93
2023-03-17T15:32:11.089Z,5.45
2023-03-17T15:34:39.053Z,4.47
2023-03-17T15:37:15.993Z,5.15
2023-03-17T15:39:44.085Z,6.03
2023-03-17T15:42:12.016Z,5.20
2023-03-17T15:44:40.610Z,7.10
2023-03-17T15:47:13.250Z,4.95
2023-03-17T15:49:41.417Z,5.80
2023-03-17T15:52:16.174Z,7.70
2023-03-17T15:54:44.944Z,5.83
2023-03-17T15:57:13.772Z,4.97
2023-03-17T15:59:42.003Z,4.50
2023-03-17T16:02:25.855Z,6.63
2023-03-17T16:04:54.180Z,4.35
2023-03-17T16:07:24.561Z,4.80
2023-03-17T16:09:52.478Z,7.00
2023-03-17T16:12:21.150Z,5.70
2023-03-17T16:14:49.206Z,4.63
2023-03-17T16:17:21.661Z,5.38
2023-03-17T16:19:50.233Z,5.57
2023-03-17T16:22:37.380Z,4.80
2023-03-17T16:25:12.960Z,5.95
2023-03-17T16:27:41.116Z,5.63
2023-03-17T16:30:17.015Z,6.60
2023-03-17T16:32:45.278Z,4.60
2023-03-17T16:35:17.936Z,4.63
2023-03-17T16:37:48.053Z,5.13
2023-03-17T16:40:23.757Z,5.35
2023-03-17T16:42:51.822Z,6.10
2023-03-17T16:45:26.443Z,4.90
2023-03-17T16:47:55.034Z,4.90
2023-03-17T16:50:25.601Z,5.95
2023-03-17T16:52:55.301Z,5.00
2023-03-17T16:55:25.295Z,4.93
2023-03-17T16:57:55.968Z,5.97
2023-03-17T17:00:26.419Z,5.57
2023-03-17T17:02:55.202Z,6.20
2023-03-17T17:05:25.377Z,5.07
2023-03-17T17:07:56.710Z,4.65
2023-03-17T17:10:27.160Z,5.47
2023-03-17T17:12:55.639Z,5.35
2023-03-17T17:15:24.170Z,6.50
2023-03-17T17:17:56.423Z,5.80
2023-03-17T17:20:28.892Z,5.63
2023-03-17T17:22:59.014Z,7.67
2023-03-17T17:25:28.065Z,7.68
2023-03-17T17:27:57.039Z,4.47
2023-03-17T17:30:28.288Z,6.15
2023-03-17T17:32:58.869Z,5.70
2023-03-17T17:35:31.245Z,7.20
2023-03-17T17:38:02.056Z,5.68
2023-03-17T17:40:31.194Z,6.30
2023-03-17T17:42:59.504Z,4.93
2023-03-17T17:45:27.494Z,6.30
2023-03-17T17:47:55.413Z,7.17
2023-03-17T17:50:26.481Z,6.13
2023-03-17T17:52:55.032Z,5.82
2023-03-17T17:55:24.308Z,6.60
2023-03-17T17:57:52.697Z,6.15
2023-03-17T18:00:21.600Z,8.10
2023-03-17T18:02:49.416Z,6.97
2023-03-17T18:05:17.876Z,7.55
2023-03-17T18:07:46.217Z,5.90
2023-03-17T18:10:18.436Z,6.47
2023-03-17T18:12:48.157Z,4.87
2023-03-17T18:15:16.859Z,8.80
2023-03-17T18:17:45.049Z,5.63
2023-03-17T18:20:15.008Z,7.10
2023-03-17T18:22:43.604Z,6.93
2023-03-17T18:25:14.255Z,6.40
2023-03-17T18:27:42.714Z,6.60
2023-03-17T18:30:15.126Z,5.13
2023-03-17T18:32:43.971Z,5.32
2023-03-17T18:35:15.784Z,7.45
2023-03-17T18:37:45.088Z,7.87
2023-03-17T18:40:17.249Z,5.75
2023-03-17T18:42:47.026Z,7.47
2023-03-17T18:45:17.050Z,5.55
2023-03-17T18:47:44.986Z,6.05
2023-03-17T18:50:15.886Z,6.17
2023-03-17T18:52:44.846Z,8.60
2023-03-17T18:55:14.160Z,6.07
2023-03-17T18:57:44.489Z,7.07
2023-03-17T19:00:14.614Z,5.22
2023-03-17T19:02:44.518Z,5.97
2023-03-17T19:05:13.161Z,5.65
2023-03-17T19:07:41.892Z,5.70
2023-03-17T19:10:12.040Z,5.85
2023-03-17T19:12:42.573Z,7.22
2023-03-17T19:15:12.478Z,7.10
2023-03-17T19:17:41.704Z,6.88
2023-03-17T19:20:13.340Z,6.55
2023-03-17T19:22:41.639Z,7.10
2023-03-17T19:25:11.330Z,5.70
2023-03-17T19:27:39.935Z,5.47
2023-03-17T19:30:10.194Z,9.63
2023-03-17T19:32:38.577Z,6.28
2023-03-17T19:35:08.295Z,6.50
2023-03-17T19:37:38.301Z,6.90
2023-03-17T19:40:08.162Z,7.23
2023-03-17T19:42:36.280Z,7.30
2023-03-17T19:45:04.904Z,6.93
2023-03-17T19:47:33.108Z,5.85
2023-03-17T19:50:02.210Z,4.95
2023-03-17T19:52:31.151Z,7.30
2023-03-17T19:55:00.472Z,7.55
2023-03-17T19:57:28.820Z,6.65
2023-03-17T19:59:57.376Z,8.98
2023-03-17T20:02:25.780Z,8.13
2023-03-17T20:04:54.267Z,7.80
2023-03-17T20:07:23.168Z,6.70
2023-03-17T20:09:51.202Z,6.88
2023-03-17T20:12:20.649Z,7.90
2023-03-17T20:14:49.065Z,7.20
2023-03-17T20:17:17.777Z,6.27
2023-03-17T20:19:46.165Z,7.53
2023-03-17T20:22:14.027Z,6.60
2023-03-17T20:24:42.435Z,6.97
2023-03-17T20:27:11.356Z,7.28
2023-03-17T20:29:40.973Z,5.97
2023-03-17T20:32:09.162Z,8.38
2023-03-17T20:34:37.704Z,8.32
2023-03-17T20:37:06.061Z,8.07
2023-03-17T20:39:34.050Z,6.55
2023-03-17T20:42:04.229Z,6.00
2023-03-17T20:44:32.193Z,6.50
2023-03-17T20:47:01.926Z,7.72
2023-03-17T20:49:30.518Z,7.20
2023-03-17T20:51:58.443Z,5.80
2023-03-17T20:54:26.352Z,7.97
2023-03-17T20:56:56.555Z,5.95
2023-03-17T20:59:26.117Z,9.07
2023-03-17T21:01:54.133Z,7.10
2023-03-17T21:04:24.623Z,6.72
2023-03-17T21:06:52.421Z,7.27
2023-03-17T21:09:20.321Z,6.13
2023-03-17T21:11:49.253Z,6.82
2023-03-17T21:14:17.326Z,7.93
2023-03-17T21:16:47.269Z,7.00
2023-03-17T21:19:17.186Z,7.90
2023-03-17T21:21:46.554Z,8.50
2023-03-17T21:24:26.522Z,7.95
2023-03-17T21:26:54.709Z,6.35
2023-03-17T21:29:23.586Z,7.07
2023-03-17T21:31:51.704Z,7.43
2023-03-17T21:34:19.912Z,9.68
2023-03-17T21:36:49.251Z,7.57
2023-03-17T21:39:17.657Z,6.18
2023-03-17T21:41:46.840Z,6.55
2023-03-17T21:44:15.905Z,6.80
2023-03-17T21:46:44.162Z,6.55
2023-03-17T21:49:13.254Z,5.88
2023-03-17T21:51:41.244Z,5.95
2023-03-17T21:54:10.632Z,7.18
2023-03-17T21:56:39.663Z,6.53
2023-03-17T21:59:10.842Z,6.13
2023-03-17T22:01:39.021Z,6.63
2023-03-17T22:04:07.421Z,6.20
2023-03-17T22:06:35.440Z,5.60
2023-03-17T22:09:04.374Z,5.37
2023-03-17T22:11:33.584Z,7.57
2023-03-17T22:14:01.837Z,6.57
2023-03-17T22:16:30.076Z,6.03
2023-03-17T22:18:58.010Z,5.63
2023-03-17T22:21:26.054Z,4.87
2023-03-17T22:23:53.875Z,4.70
2023-03-17T22:26:22.955Z,4.75
2023-03-17T22:28:52.238Z,6.30
2023-03-17T22:31:22.277Z,5.60
2023-03-17T22:33:52.590Z,5.53
2023-03-17T22:36:20.794Z,5.30
2023-03-17T22:38:49.123Z,5.20
2023-03-17T22:41:18.719Z,6.97
2023-03-17T22:43:47.327Z,6.13
2023-03-17T22:46:17.720Z,4.93
2023-03-17T22:48:46.723Z,6.75
2023-03-17T22:51:17.322Z,8.32
2023-03-17T22:53:46.098Z,5.20
2023-03-17T22:56:16.382Z,4.82
2023-03-17T22:58:45.072Z,5.03
2023-03-17T23:01:16.225Z,7.88
2023-03-17T23:03:45.999Z,6.18
2023-03-17T23:06:15.421Z,5.38
2023-03-17T23:08:45.689Z,5.72
2023-03-17T23:11:17.172Z,5.73
2023-03-17T23:13:45.845Z,6.43
2023-03-17T23:16:14.645Z,7.78
2023-03-17T23:18:46.095Z,5.53
2023-03-17T23:21:21.873Z,7.32
2023-03-17T23:23:49.768Z,6.50
2023-03-17T23:26:17.974Z,5.63
2023-03-17T23:28:46.355Z,6.68
2023-03-17T23:31:15.790Z,6.60
2023-03-17T23:33:44.115Z,7.03
2023-03-17T23:36:13.977Z,5.30
2023-03-17T23:38:43.986Z,5.88
2023-03-17T23:41:12.719Z,5.60
2023-03-17T23:43:41.491Z,7.07
2023-03-17T23:46:09.490Z,6.03
2023-03-17T23:48:37.999Z,8.10
2023-03-17T23:51:06.844Z,5.63
2023-03-17T23:53:34.730Z,5.53
2023-03-17T23:56:04.859Z,5.53
2023-03-17T23:58:33.228Z,7.35
